createdAt,value
2023-05-13T00:01:39.065Z,98791.05
2023-05-13T00:04:09.054Z,98791.83
2023-05-13T00:06:38.493Z,98788.02
2023-05-13T00:09:07.558Z,98789.84
2023-05-13T00:11:36.725Z,98788.33
2023-05-13T00:14:07.136Z,98779.48
2023-05-13T00:16:36.519Z,98779.56
2023-05-13T00:19:05.772Z,98776.70
2023-05-13T00:21:35.063Z,98776.48
2023-05-13T00:24:04.601Z,98766.00
2023-05-13T00:26:33.900Z,98760.33
2023-05-13T00:29:03.366Z,98766.79
2023-05-13T00:31:32.738Z,98774.30
2023-05-13T00:34:02.044Z,98784.30
2023-05-13T00:36:31.349Z,98787.90
2023-05-13T00:39:01.028Z,98789.39
2023-05-13T00:41:30.366Z,98788.77
2023-05-13T00:44:00.281Z,98784.38
2023-05-13T00:46:33.471Z,98783.60
2023-05-13T00:49:03.072Z,98789.95
2023-05-13T00:51:33.101Z,98799.46
2023-05-13T00:54:02.053Z,98809.11
2023-05-13T00:56:31.137Z,98811.38
2023-05-13T00:59:00.171Z,98810.07
2023-05-13T01:01:56.746Z,98805.75
2023-05-13T01:04:43.121Z,98803.84
2023-05-13T01:07:36.707Z,98796.86
2023-05-13T01:10:37.013Z,98786.89
2023-05-13T01:13:14.842Z,98782.92
2023-05-13T01:15:50.635Z,98791.20
2023-05-13T01:18:45.634Z,98795.06
2023-05-13T01:21:15.634Z,98799.98
2023-05-13T01:23:45.356Z,98798.36
2023-05-13T01:26:14.506Z,98795.61
2023-05-13T01:28:43.472Z,98791.16
2023-05-13T01:31:14.439Z,98789.80
2023-05-13T01:33:44.432Z,98786.29
2023-05-13T01:36:14.325Z,98787.75
2023-05-13T01:38:44.293Z,98781.80
2023-05-13T01:41:13.597Z,98778.27
2023-05-13T01:43:42.939Z,98774.68
2023-05-13T01:46:16.249Z,98776.75
2023-05-13T01:48:45.623Z,98774.25
2023-05-13T01:51:15.008Z,98770.19
2023-05-13T01:53:44.195Z,98762.04
2023-05-13T01:56:13.355Z,98756.70
2023-05-13T01:58:42.521Z,98752.84
2023-05-13T02:01:11.742Z,98750.65
2023-05-13T02:03:40.989Z,98747.33
2023-05-13T02:06:10.073Z,98743.54
2023-05-13T02:08:39.248Z,98743.86
2023-05-13T02:11:08.549Z,98742.16
2023-05-13T02:13:37.418Z,98743.31
2023-05-13T02:16:06.955Z,98741.79
2023-05-13T02:18:35.871Z,98739.59
2023-05-13T02:21:04.928Z,98730.23
2023-05-13T02:23:33.759Z,98721.58
2023-05-13T02:26:02.694Z,98722.36
2023-05-13T02:28:31.697Z,98727.02
2023-05-13T02:31:01.000Z,98725.17
2023-05-13T02:33:30.075Z,98724.83
2023-05-13T02:35:58.714Z,98722.15
2023-05-13T02:38:27.597Z,98726.74
2023-05-13T02:40:56.699Z,98731.01
2023-05-13T02:43:27.918Z,98738.79
2023-05-13T02:45:57.804Z,98744.07
2023-05-13T02:48:26.714Z,98742.75
2023-05-13T02:50:55.441Z,98746.55
2023-05-13T02:53:24.956Z,98751.27
2023-05-13T02:55:55.033Z,98742.23
2023-05-13T02:58:24.355Z,98751.27
2023-05-13T03:00:53.854Z,98748.71
2023-05-13T03:03:23.161Z,98751.41
2023-05-13T03:05:52.372Z,98761.36
2023-05-13T03:08:21.588Z,98766.10
2023-05-13T03:10:52.108Z,98764.05
2023-05-13T03:13:21.034Z,98762.02
2023-05-13T03:15:50.206Z,98761.24
2023-05-13T03:18:19.296Z,98758.11
2023-05-13T03:20:48.772Z,98745.94
2023-05-13T03:23:18.091Z,98746.30
2023-05-13T03:25:47.163Z,98746.94
2023-05-13T03:28:16.568Z,98751.69
2023-05-13T03:30:45.833Z,98756.32
2023-05-13T03:33:14.602Z,98753.20
2023-05-13T03:35:44.468Z,98751.48
2023-05-13T03:38:13.731Z,98747.70
2023-05-13T03:40:42.839Z,98744.07
2023-05-13T03:43:12.207Z,98746.84
2023-05-13T03:45:41.445Z,98756.91
2023-05-13T03:48:10.705Z,98766.40
2023-05-13T03:50:40.135Z,98772.13
2023-05-13T03:53:11.860Z,98768.65
2023-05-13T03:55:40.596Z,98765.60
2023-05-13T03:58:15.070Z,98769.14
2023-05-13T04:00:47.132Z,98770.48
2023-05-13T04:03:17.823Z,98771.17
2023-05-13T04:05:47.852Z,98766.52
2023-05-13T04:08:16.902Z,98766.23
2023-05-13T04:10:46.124Z,98765.02
2023-05-13T04:13:15.138Z,98771.42
2023-05-13T04:15:44.296Z,98771.20
2023-05-13T04:18:13.565Z,98766.31
2023-05-13T04:20:42.906Z,98776.52
2023-05-13T04:23:11.900Z,98771.63
2023-05-13T04:25:41.660Z,98778.92
2023-05-13T04:28:10.813Z,98788.00
2023-05-13T04:30:39.961Z,98789.17
2023-05-13T04:33:09.147Z,98778.88
2023-05-13T04:35:38.707Z,98771.34
2023-05-13T04:38:08.582Z,98765.52
2023-05-13T04:40:38.048Z,98767.17
2023-05-13T04:43:07.294Z,98771.19
2023-05-13T04:45:37.457Z,98775.52
2023-05-13T04:48:06.784Z,98781.19
2023-05-13T04:50:36.019Z,98780.65
2023-05-13T04:53:05.387Z,98773.95
2023-05-13T04:55:35.435Z,98768.77
2023-05-13T04:58:04.318Z,98768.70
2023-05-13T05:00:33.673Z,98771.05
2023-05-13T05:03:02.886Z,98774.05
2023-05-13T05:05:32.358Z,98776.73
2023-05-13T05:08:01.212Z,98773.10
2023-05-13T05:10:30.369Z,98771.05
2023-05-13T05:12:59.568Z,98768.55
2023-05-13T05:15:30.525Z,98774.71
2023-05-13T05:17:59.978Z,98778.73
2023-05-13T05:20:29.056Z,98783.23
2023-05-13T05:22:57.952Z,98784.48
2023-05-13T05:25:27.174Z,98779.77
2023-05-13T05:27:57.956Z,98774.38
2023-05-13T05:30:27.658Z,98776.00
2023-05-13T05:32:57.085Z,98773.02
2023-05-13T05:35:26.692Z,98768.64
2023-05-13T05:37:56.014Z,98772.91
2023-05-13T05:40:24.770Z,98778.30
2023-05-13T05:42:53.732Z,98777.58
2023-05-13T05:45:23.569Z,98778.02
2023-05-13T05:47:55.305Z,98769.95
2023-05-13T05:50:25.503Z,98763.55
2023-05-13T05:52:54.240Z,98763.77
2023-05-13T05:55:23.592Z,98756.45
2023-05-13T05:57:52.535Z,98760.45
2023-05-13T06:00:21.773Z,98771.23
2023-05-13T06:02:51.438Z,98768.05
2023-05-13T06:05:20.756Z,98765.58
2023-05-13T06:07:50.279Z,98777.02
2023-05-13T06:10:19.836Z,98785.89
2023-05-13T06:12:49.264Z,98785.63
2023-05-13T06:15:18.586Z,98783.85
2023-05-13T06:17:47.698Z,98779.02
2023-05-13T06:20:16.762Z,98781.73
2023-05-13T06:22:45.759Z,98784.39
2023-05-13T06:25:15.624Z,98788.35
2023-05-13T06:27:44.707Z,98782.95
2023-05-13T06:30:13.718Z,98778.68
2023-05-13T06:32:53.446Z,98778.06
2023-05-13T06:35:26.864Z,98783.73
2023-05-13T06:37:56.310Z,98782.61
2023-05-13T06:40:25.973Z,98783.87
2023-05-13T06:42:55.197Z,98781.45
2023-05-13T06:45:26.199Z,98773.17
2023-05-13T06:47:55.190Z,98772.22
2023-05-13T06:50:24.362Z,98770.77
2023-05-13T06:52:53.840Z,98778.49
2023-05-13T06:55:23.000Z,98780.02
2023-05-13T06:57:52.160Z,98771.64
2023-05-13T07:00:21.808Z,98765.88
2023-05-13T07:02:52.307Z,98768.10
2023-05-13T07:05:21.918Z,98775.10
2023-05-13T07:07:54.217Z,98780.30
2023-05-13T07:10:24.054Z,98779.11
2023-05-13T07:12:53.490Z,98777.33
2023-05-13T07:15:22.529Z,98782.23
2023-05-13T07:17:51.847Z,98773.67
2023-05-13T07:20:24.148Z,98771.62
2023-05-13T07:22:53.467Z,98773.17
2023-05-13T07:25:23.649Z,98764.68
2023-05-13T07:27:52.852Z,98761.02
2023-05-13T07:30:22.647Z,98757.25
2023-05-13T07:32:54.414Z,98757.97
2023-05-13T07:35:23.823Z,98759.91
2023-05-13T07:37:54.531Z,98758.67
2023-05-13T07:40:24.586Z,98761.50
2023-05-13T07:42:54.202Z,98763.41
2023-05-13T07:45:24.043Z,98765.67
2023-05-13T07:47:53.563Z,98765.38
2023-05-13T07:50:23.467Z,98763.88
2023-05-13T07:52:52.962Z,98758.05
2023-05-13T07:55:22.815Z,98760.65
2023-05-13T07:57:52.337Z,98761.98
2023-05-13T08:00:22.101Z,98760.61
2023-05-13T08:02:51.113Z,98761.56
2023-05-13T08:05:20.850Z,98762.02
2023-05-13T08:07:50.362Z,98757.46
2023-05-13T08:10:19.742Z,98746.21
2023-05-13T08:12:54.567Z,98740.45
2023-05-13T08:15:27.697Z,98738.64
2023-05-13T08:17:57.127Z,98736.58
2023-05-13T08:20:30.935Z,98735.04
2023-05-13T08:23:02.558Z,98736.55
2023-05-13T08:25:32.321Z,98737.64
2023-05-13T08:28:03.820Z,98742.77
2023-05-13T08:30:34.048Z,98752.34
2023-05-13T08:33:03.795Z,98754.83
2023-05-13T08:35:33.455Z,98750.41
2023-05-13T08:38:05.759Z,98747.85
2023-05-13T08:40:35.371Z,98744.81
2023-05-13T08:43:07.034Z,98736.14
2023-05-13T08:45:40.249Z,98738.39
2023-05-13T08:48:11.988Z,98741.73
2023-05-13T08:50:42.334Z,98742.13
2023-05-13T08:53:13.753Z,98739.39
2023-05-13T08:55:44.428Z,98737.91
2023-05-13T08:58:14.131Z,98734.36
2023-05-13T09:00:43.761Z,98736.58
2023-05-13T09:03:14.689Z,98738.64
2023-05-13T09:05:44.852Z,98736.60
2023-05-13T09:08:14.459Z,98733.27
2023-05-13T09:10:43.998Z,98730.76
2023-05-13T09:13:14.938Z,98729.05
2023-05-13T09:15:45.089Z,98727.14
2023-05-13T09:18:18.860Z,98727.75
2023-05-13T09:20:55.915Z,98724.90
2023-05-13T09:23:27.848Z,98720.95
2023-05-13T09:25:58.651Z,98715.87
2023-05-13T09:28:27.526Z,98712.29
2023-05-13T09:30:57.445Z,98717.16
2023-05-13T09:33:33.062Z,98719.11
2023-05-13T09:36:06.393Z,98715.80
2023-05-13T09:38:39.590Z,98720.05
2023-05-13T09:41:11.866Z,98724.91
2023-05-13T09:43:41.787Z,98722.59
2023-05-13T09:46:12.407Z,98719.77
2023-05-13T09:48:44.122Z,98732.97
2023-05-13T09:51:17.248Z,98739.75
2023-05-13T09:53:48.592Z,98736.75
2023-05-13T09:56:22.804Z,98728.23
2023-05-13T09:58:53.466Z,98726.84
2023-05-13T10:01:22.999Z,98729.58
2023-05-13T10:03:52.924Z,98723.58
2023-05-13T10:06:25.055Z,98723.20
2023-05-13T10:08:58.646Z,98726.48
2023-05-13T10:11:30.949Z,98727.33
2023-05-13T10:14:06.059Z,98723.52
2023-05-13T10:16:36.247Z,98714.02
2023-05-13T10:19:06.834Z,98702.00
2023-05-13T10:21:37.553Z,98693.80
2023-05-13T10:24:08.435Z,98688.48
2023-05-13T10:26:38.442Z,98682.89
2023-05-13T10:29:07.666Z,98680.39
2023-05-13T10:31:37.626Z,98685.83
2023-05-13T10:34:07.270Z,98682.38
2023-05-13T10:37:02.994Z,98685.40
2023-05-13T10:39:50.804Z,98684.52
2023-05-13T10:42:22.853Z,98678.01
2023-05-13T10:45:02.071Z,98669.26
2023-05-13T10:47:34.648Z,98661.58
2023-05-13T10:50:08.408Z,98662.88
2023-05-13T10:52:47.682Z,98662.84
2023-05-13T10:55:20.296Z,98659.15
2023-05-13T10:58:10.024Z,98658.64
2023-05-13T11:00:42.213Z,98656.48
2023-05-13T11:03:12.812Z,98659.67
2023-05-13T11:05:48.021Z,98655.38
2023-05-13T11:08:56.322Z,98653.76
2023-05-13T11:11:30.142Z,98654.05
2023-05-13T11:14:09.320Z,98650.62
2023-05-13T11:16:39.642Z,98650.39
2023-05-13T11:19:19.187Z,98646.34
2023-05-13T11:21:56.178Z,98644.84
2023-05-13T11:24:27.085Z,98644.29
2023-05-13T11:26:59.749Z,98639.58
2023-05-13T11:29:34.232Z,98644.84
2023-05-13T11:32:06.603Z,98653.85
2023-05-13T11:34:36.592Z,98658.41
2023-05-13T11:37:06.357Z,98657.38
2023-05-13T11:39:36.775Z,98648.27
2023-05-13T11:42:12.509Z,98645.41
2023-05-13T11:44:49.094Z,98648.73
2023-05-13T11:47:30.091Z,98648.20
2023-05-13T11:49:59.954Z,98650.33
2023-05-13T11:52:29.974Z,98658.27
2023-05-13T11:55:00.102Z,98664.25
2023-05-13T11:57:35.277Z,98669.95
2023-05-13T12:00:08.159Z,98677.24
2023-05-13T12:02:40.891Z,98683.36
2023-05-13T12:05:12.169Z,98678.17
2023-05-13T12:07:42.193Z,98676.31
2023-05-13T12:10:11.509Z,98679.56
2023-05-13T12:12:46.588Z,98679.02
2023-05-13T12:15:21.890Z,98678.95
2023-05-13T12:17:55.178Z,98669.27
2023-05-13T12:20:28.454Z,98667.13
2023-05-13T12:23:04.483Z,98672.88
2023-05-13T12:25:47.421Z,98682.55
2023-05-13T12:28:19.134Z,98684.27
2023-05-13T12:31:01.525Z,98682.63
2023-05-13T12:33:42.469Z,98682.84
2023-05-13T12:36:39.079Z,98687.35
2023-05-13T12:39:11.104Z,98694.16
2023-05-13T12:41:43.162Z,98689.52
2023-05-13T12:44:16.057Z,98683.20
2023-05-13T12:46:53.803Z,98680.64
2023-05-13T12:49:23.988Z,98681.23
2023-05-13T12:51:53.748Z,98677.52
2023-05-13T12:54:23.400Z,98679.90
2023-05-13T12:56:54.074Z,98676.40
2023-05-13T12:59:23.356Z,98669.63
2023-05-13T13:01:53.258Z,98670.90
2023-05-13T13:04:23.973Z,98663.84
2023-05-13T13:06:53.307Z,98654.33
2023-05-13T13:09:23.821Z,98650.82
2023-05-13T13:11:53.464Z,98649.58
2023-05-13T13:14:26.639Z,98641.45
2023-05-13T13:16:55.849Z,98639.71
2023-05-13T13:19:25.572Z,98633.56
2023-05-13T13:21:55.165Z,98631.83
2023-05-13T13:24:24.558Z,98633.15
2023-05-13T13:26:54.995Z,98636.11
2023-05-13T13:29:25.463Z,98645.85
2023-05-13T13:31:54.836Z,98651.24
2023-05-13T13:34:24.557Z,98654.85
2023-05-13T13:36:56.877Z,98656.09
2023-05-13T13:39:28.652Z,98655.46
2023-05-13T13:41:58.768Z,98656.59
2023-05-13T13:44:29.128Z,98655.49
2023-05-13T13:46:59.940Z,98656.02
2023-05-13T13:49:29.200Z,98653.64
2023-05-13T13:51:58.325Z,98648.02
2023-05-13T13:54:27.573Z,98643.35
2023-05-13T13:56:57.119Z,98641.13
2023-05-13T13:59:26.258Z,98641.58
2023-05-13T14:01:57.469Z,98645.52
2023-05-13T14:04:28.650Z,98656.05
2023-05-13T14:06:58.156Z,98667.22
2023-05-13T14:09:28.201Z,98664.98
2023-05-13T14:11:57.577Z,98663.77
2023-05-13T14:14:27.061Z,98667.11
2023-05-13T14:16:57.539Z,98664.45
2023-05-13T14:19:30.573Z,98655.19
2023-05-13T14:22:01.740Z,98656.07
2023-05-13T14:24:31.990Z,98657.74
2023-05-13T14:27:02.145Z,98653.50
2023-05-13T14:29:33.191Z,98655.88
2023-05-13T14:32:04.675Z,98648.81
2023-05-13T14:34:35.953Z,98640.71
2023-05-13T14:37:06.703Z,98640.44
2023-05-13T14:39:36.474Z,98637.05
2023-05-13T14:42:06.817Z,98636.69
2023-05-13T14:44:37.297Z,98636.61
2023-05-13T14:47:07.754Z,98647.48
2023-05-13T14:49:37.240Z,98648.83
2023-05-13T14:52:06.826Z,98639.07
2023-05-13T14:54:38.712Z,98633.75
2023-05-13T14:57:08.234Z,98631.31
2023-05-13T14:59:38.529Z,98628.59
2023-05-13T15:02:07.670Z,98625.11
2023-05-13T15:04:37.014Z,98621.83
2023-05-13T15:07:07.726Z,98615.44
2023-05-13T15:09:36.844Z,98610.39
2023-05-13T15:12:06.650Z,98605.95
2023-05-13T15:14:35.956Z,98597.27
2023-05-13T15:17:06.537Z,98590.56
2023-05-13T15:19:36.473Z,98582.40
2023-05-13T15:22:06.194Z,98587.92
2023-05-13T15:24:35.780Z,98587.98
2023-05-13T15:27:05.130Z,98579.59
2023-05-13T15:29:34.413Z,98573.21
2023-05-13T15:32:04.179Z,98562.32
2023-05-13T15:34:33.863Z,98566.08
2023-05-13T15:37:03.402Z,98572.64
2023-05-13T15:39:32.653Z,98576.74
2023-05-13T15:42:02.561Z,98569.86
2023-05-13T15:44:32.517Z,98567.27
2023-05-13T15:47:05.227Z,98565.98
2023-05-13T15:49:35.106Z,98568.54
2023-05-13T15:52:07.099Z,98571.45
2023-05-13T15:54:36.610Z,98569.25
2023-05-13T15:57:05.834Z,98571.77
2023-05-13T15:59:36.405Z,98567.23
2023-05-13T16:02:05.825Z,98565.64
2023-05-13T16:04:35.241Z,98565.45
2023-05-13T16:07:04.672Z,98573.67
2023-05-13T16:09:34.257Z,98580.80
2023-05-13T16:12:04.041Z,98578.34
2023-05-13T16:14:33.595Z,98577.59
2023-05-13T16:17:03.681Z,98577.03
2023-05-13T16:19:33.774Z,98576.52
2023-05-13T16:22:27.674Z,98575.16
2023-05-13T16:25:01.439Z,98572.89
2023-05-13T16:27:31.187Z,98573.06
2023-05-13T16:30:01.641Z,98569.67
2023-05-13T16:32:33.911Z,98567.78
2023-05-13T16:35:05.228Z,98564.67
2023-05-13T16:37:36.211Z,98561.10
2023-05-13T16:40:05.982Z,98557.90
2023-05-13T16:42:35.964Z,98550.80
2023-05-13T16:45:06.926Z,98548.35
2023-05-13T16:47:36.244Z,98542.80
2023-05-13T16:50:06.588Z,98536.02
2023-05-13T16:52:35.992Z,98530.77
2023-05-13T16:55:06.024Z,98534.01
2023-05-13T16:57:35.099Z,98535.48
2023-05-13T17:00:04.894Z,98539.30
2023-05-13T17:02:35.068Z,98544.04
2023-05-13T17:05:05.167Z,98548.46
2023-05-13T17:07:34.407Z,98551.52
2023-05-13T17:10:03.633Z,98550.99
2023-05-13T17:12:33.839Z,98550.84
2023-05-13T17:15:04.925Z,98548.80
2023-05-13T17:17:34.790Z,98549.13
2023-05-13T17:20:06.376Z,98545.04
2023-05-13T17:22:38.237Z,98548.20
2023-05-13T17:25:08.725Z,98548.76
2023-05-13T17:27:39.323Z,98552.02
2023-05-13T17:30:09.850Z,98545.63
2023-05-13T17:32:40.612Z,98543.63
2023-05-13T17:35:11.035Z,98548.79
2023-05-13T17:37:41.730Z,98548.52
2023-05-13T17:40:11.713Z,98546.66
2023-05-13T17:42:41.503Z,98542.66
2023-05-13T17:45:11.049Z,98537.95
2023-05-13T17:47:41.287Z,98538.27
2023-05-13T17:50:11.484Z,98537.45
2023-05-13T17:52:42.026Z,98536.89
2023-05-13T17:55:11.879Z,98538.33
2023-05-13T17:57:41.617Z,98540.18
2023-05-13T18:00:12.504Z,98537.06
2023-05-13T18:02:43.109Z,98539.70
2023-05-13T18:05:12.399Z,98538.98
2023-05-13T18:07:41.844Z,98540.70
2023-05-13T18:10:11.177Z,98540.45
2023-05-13T18:12:40.435Z,98541.30
2023-05-13T18:15:09.846Z,98538.48
2023-05-13T18:17:39.716Z,98536.38
2023-05-13T18:20:09.534Z,98533.69
2023-05-13T18:22:39.411Z,98530.96
2023-05-13T18:25:10.334Z,98526.34
2023-05-13T18:27:39.730Z,98524.73
2023-05-13T18:30:10.369Z,98527.54
2023-05-13T18:32:39.943Z,98525.73
2023-05-13T18:35:10.070Z,98527.70
2023-05-13T18:37:40.310Z,98524.56
2023-05-13T18:40:10.254Z,98526.02
2023-05-13T18:42:40.630Z,98519.66
2023-05-13T18:45:11.278Z,98515.13
2023-05-13T18:47:41.491Z,98516.75
2023-05-13T18:50:12.319Z,98517.66
2023-05-13T18:52:42.641Z,98523.61
2023-05-13T18:55:12.331Z,98525.17
2023-05-13T18:57:41.875Z,98527.21
2023-05-13T19:00:11.850Z,98523.23
2023-05-13T19:02:42.327Z,98523.87
2023-05-13T19:05:12.333Z,98523.68
2023-05-13T19:07:44.621Z,98524.33
2023-05-13T19:10:14.151Z,98529.55
2023-05-13T19:12:44.473Z,98530.80
2023-05-13T19:15:14.768Z,98538.35
2023-05-13T19:17:44.962Z,98539.34
2023-05-13T19:20:15.275Z,98541.42
2023-05-13T19:22:46.814Z,98547.45
2023-05-13T19:25:16.827Z,98549.89
2023-05-13T19:27:49.120Z,98552.44
2023-05-13T19:30:19.759Z,98551.53
2023-05-13T19:32:50.986Z,98552.95
2023-05-13T19:35:20.976Z,98552.67
2023-05-13T19:37:51.535Z,98552.71
2023-05-13T19:40:21.110Z,98549.53
2023-05-13T19:42:51.034Z,98551.84
2023-05-13T19:45:21.866Z,98551.67
2023-05-13T19:47:52.896Z,98545.59
2023-05-13T19:50:23.178Z,98545.11
2023-05-13T19:52:54.518Z,98548.36
2023-05-13T19:55:24.638Z,98559.51
2023-05-13T19:57:55.729Z,98562.66
2023-05-13T20:00:25.178Z,98552.52
2023-05-13T20:02:55.236Z,98557.03
2023-05-13T20:05:24.581Z,98559.75
2023-05-13T20:07:53.998Z,98559.53
2023-05-13T20:10:23.975Z,98559.58
2023-05-13T20:12:54.458Z,98557.92
2023-05-13T20:15:24.624Z,98561.27
2023-05-13T20:17:54.680Z,98561.81
2023-05-13T20:20:25.609Z,98561.05
2023-05-13T20:22:56.314Z,98565.51
2023-05-13T20:25:26.656Z,98568.95
2023-05-13T20:27:56.279Z,98564.02
2023-05-13T20:30:26.264Z,98553.23
2023-05-13T20:32:56.364Z,98556.49
2023-05-13T20:35:28.085Z,98560.64
2023-05-13T20:37:59.260Z,98557.30
2023-05-13T20:40:28.739Z,98560.15
2023-05-13T20:43:02.440Z,98559.86
2023-05-13T20:45:32.352Z,98556.76
2023-05-13T20:48:03.349Z,98554.64
2023-05-13T20:50:34.173Z,98552.34
2023-05-13T20:53:03.755Z,98549.04
2023-05-13T20:55:34.540Z,98545.84
2023-05-13T20:58:03.816Z,98544.52
2023-05-13T21:00:33.456Z,98543.42
2023-05-13T21:03:03.090Z,98541.16
2023-05-13T21:05:33.171Z,98540.27
2023-05-13T21:08:02.433Z,98531.51
2023-05-13T21:10:31.744Z,98528.44
2023-05-13T21:13:01.716Z,98522.94
2023-05-13T21:15:31.076Z,98525.90
2023-05-13T21:18:01.525Z,98523.67
2023-05-13T21:20:33.017Z,98524.97
2023-05-13T21:23:02.960Z,98517.86
2023-05-13T21:25:32.947Z,98516.83
2023-05-13T21:28:04.082Z,98517.45
2023-05-13T21:30:33.590Z,98514.30
2023-05-13T21:33:05.412Z,98510.60
2023-05-13T21:35:35.983Z,98505.60
2023-05-13T21:38:12.052Z,98509.52
2023-05-13T21:40:43.791Z,98507.14
2023-05-13T21:43:12.827Z,98509.73
2023-05-13T21:45:42.176Z,98504.92
2023-05-13T21:48:11.391Z,98504.63
2023-05-13T21:50:40.748Z,98506.13
2023-05-13T21:53:11.390Z,98506.86
2023-05-13T21:55:41.548Z,98507.70
2023-05-13T21:58:10.950Z,98504.60
2023-05-13T22:00:40.927Z,98500.88
2023-05-13T22:03:10.356Z,98496.91
2023-05-13T22:05:44.746Z,98494.48
2023-05-13T22:08:15.069Z,98493.42
2023-05-13T22:10:44.742Z,98490.84
2023-05-13T22:13:14.112Z,98488.45
2023-05-13T22:15:44.315Z,98486.02
2023-05-13T22:18:15.487Z,98485.56
2023-05-13T22:20:45.505Z,98488.52
2023-05-13T22:23:15.394Z,98484.61
2023-05-13T22:25:45.839Z,98482.25
2023-05-13T22:28:15.388Z,98476.17
2023-05-13T22:30:47.602Z,98469.88
2023-05-13T22:33:17.280Z,98468.23
2023-05-13T22:35:47.319Z,98464.35
2023-05-13T22:38:17.395Z,98459.70
2023-05-13T22:40:47.622Z,98465.80
2023-05-13T22:43:16.783Z,98465.34
2023-05-13T22:45:46.367Z,98466.73
2023-05-13T22:48:15.749Z,98469.70
2023-05-13T22:50:44.900Z,98472.13
2023-05-13T22:53:14.051Z,98471.45
2023-05-13T22:55:43.147Z,98468.92
2023-05-13T22:58:12.425Z,98465.07
2023-05-13T23:00:41.733Z,98458.67
2023-05-13T23:03:10.891Z,98460.43
2023-05-13T23:05:40.259Z,98457.64
2023-05-13T23:08:09.343Z,98457.84
2023-05-13T23:10:38.591Z,98455.72
2023-05-13T23:13:08.115Z,98453.02
2023-05-13T23:15:40.105Z,98448.96
2023-05-13T23:18:09.228Z,98441.05
2023-05-13T23:20:38.453Z,98440.09
2023-05-13T23:23:08.325Z,98426.54
2023-05-13T23:25:37.282Z,98418.16
2023-05-13T23:28:06.425Z,98409.38
2023-05-13T23:30:36.530Z,98401.20
2023-05-13T23:33:05.465Z,98398.67
2023-05-13T23:35:35.394Z,98398.31
2023-05-13T23:38:04.961Z,98398.38
2023-05-13T23:40:34.553Z,98395.75
2023-05-13T23:43:04.046Z,98388.56
2023-05-13T23:45:33.614Z,98385.66
2023-05-13T23:48:02.918Z,98384.90
2023-05-13T23:50:32.220Z,98378.19
2023-05-13T23:53:01.691Z,98372.77
2023-05-13T23:55:30.917Z,98366.73
2023-05-13T23:57:59.782Z,98353.08
